TAF and METAR

Could not understand the following METAR

YFRT 020200Z AUTO 07013KT 9999 // NCD 23/04 Q1023

TAF for Forrest Airport

TAF YFRT 020101Z 0202/0214 08014KT CAVOK FM020500 11011KT CAVOK
Report created 2. des 02:01

between 2. des 03:00 - 2. des 15:00

wind 14 knots from E (080°) Clear sky

From 2. des 06:00

wind 11 knots from ESE (110°) Clear sky
Forrest Airport in Australia at 156m

Latest 5 airports